Time,TemperatureF,DewpointF,PressureIn,WindDirection,WindDirectionDegrees,WindSpeedMPH,WindSpeedGustMPH,Humidity,HourlyPrecipIn,Conditions,Clouds,dailyrainin,SoftwareType,DateUTC
2013-04-29 00:01:00,55.0,43.0,30.01,West,271,8.0,16.0,63,-99.99,,,-99.99,,2013-04-29 07:01:00,
2013-04-29 00:11:00,55.0,43.0,30.01,West,267,7.0,18.0,63,-99.99,,,-99.99,,2013-04-29 07:11:00,
2013-04-29 00:21:00,55.0,42.0,30.01,West,261,8.0,15.0,62,-99.99,,,-99.99,,2013-04-29 07:21:00,
2013-04-29 00:31:00,54.0,42.0,30.01,West,276,7.0,13.0,62,-99.99,,,-99.99,,2013-04-29 07:31:00,
2013-04-29 00:41:00,54.0,42.0,30.01,WNW,285,8.0,14.0,63,-99.99,,,-99.99,,2013-04-29 07:41:00,
2013-04-29 00:52:00,53.0,43.0,30.01,West,266,8.0,21.0,69,-99.99,,,-99.99,,2013-04-29 07:52:00,
2013-04-29 01:02:00,52.0,44.0,30.00,West,278,12.0,26.0,74,-99.99,,,-99.99,,2013-04-29 08:02:00,
2013-04-29 01:11:00,52.0,45.0,30.00,West,271,10.0,19.0,78,-99.99,,,-99.99,,2013-04-29 08:11:00,
2013-04-29 01:21:00,52.0,45.0,30.00,West,267,11.0,23.0,78,-99.99,,,-99.99,,2013-04-29 08:21:00,
2013-04-29 01:31:00,51.0,45.0,30.00,West,259,9.0,16.0,79,-99.99,,,-99.99,,2013-04-29 08:31:00,
2013-04-29 01:42:00,51.0,45.0,30.00,WSW,251,5.0,14.0,79,-99.99,,,-99.99,,2013-04-29 08:42:00,
2013-04-29 01:51:00,51.0,45.0,29.99,WSW,253,11.0,19.0,79,-99.99,,,-99.99,,2013-04-29 08:51:00,
2013-04-29 02:01:00,51.0,45.0,29.99,WSW,243,6.0,13.0,79,-99.99,,,-99.99,,2013-04-29 09:01:00,
2013-04-29 02:11:00,51.0,45.0,29.98,WSW,244,6.0,14.0,78,-99.99,,,-99.99,,2013-04-29 09:11:00,
2013-04-29 02:21:00,52.0,45.0,29.98,WSW,252,6.0,14.0,78,-99.99,,,-99.99,,2013-04-29 09:21:00,
2013-04-29 02:32:00,52.0,45.0,29.98,WSW,257,7.0,19.0,78,-99.99,,,-99.99,,2013-04-29 09:32:00,
2013-04-29 02:42:00,51.0,45.0,29.98,WSW,245,6.0,13.0,77,-99.99,,,-99.99,,2013-04-29 09:42:00,
2013-04-29 02:52:00,51.0,46.0,29.97,West,265,7.0,17.0,81,-99.99,,,-99.99,,2013-04-29 09:52:00,
2013-04-29 03:02:00,51.0,46.0,29.97,West,260,8.0,16.0,82,-99.99,,,-99.99,,2013-04-29 10:02:00,
2013-04-29 03:12:00,51.0,47.0,29.97,West,259,10.0,18.0,85,-99.99,,,-99.99,,2013-04-29 10:12:00,
2013-04-29 03:22:00,51.0,47.0,29.97,West,266,10.0,22.0,85,-99.99,,,-99.99,,2013-04-29 10:22:00,
2013-04-29 03:32:00,51.0,47.0,29.97,West,259,10.0,22.0,84,-99.99,,,-99.99,,2013-04-29 10:32:00,
2013-04-29 03:42:00,51.0,46.0,29.97,West,273,9.0,17.0,83,-99.99,,,-99.99,,2013-04-29 10:42:00,
2013-04-29 03:52:00,51.0,46.0,29.97,West,273,9.0,17.0,83,-99.99,,,-99.99,,2013-04-29 10:52:00,
2013-04-29 04:02:00,52.0,46.0,29.96,West,265,8.0,14.0,82,-99.99,,,-99.99,,2013-04-29 11:02:00,
2013-04-29 04:12:00,51.0,47.0,29.97,West,268,9.0,16.0,84,-99.99,,,-99.99,,2013-04-29 11:12:00,
2013-04-29 04:21:00,51.0,47.0,29.97,West,272,8.0,15.0,85,-99.99,,,-99.99,,2013-04-29 11:21:00,
2013-04-29 04:32:00,51.0,47.0,29.97,West,272,8.0,15.0,85,-99.99,,,-99.99,,2013-04-29 11:32:00,
2013-04-29 04:41:00,51.0,47.0,29.97,WSW,253,6.0,13.0,86,-99.99,,,-99.99,,2013-04-29 11:41:00,
2013-04-29 04:52:00,51.0,47.0,29.97,West,265,8.0,15.0,87,-99.99,,,-99.99,,2013-04-29 11:52:00,
2013-04-29 05:01:00,51.0,47.0,29.97,WSW,253,8.0,18.0,87,-99.99,,,-99.99,,2013-04-29 12:01:00,
2013-04-29 05:12:00,51.0,48.0,29.97,West,262,7.0,17.0,86,-99.99,,,-99.99,,2013-04-29 12:12:00,
2013-04-29 05:22:00,51.0,47.0,29.97,West,275,11.0,22.0,85,-99.99,,,-99.99,,2013-04-29 12:22:00,
2013-04-29 05:31:00,51.0,48.0,29.97,West,270,14.0,27.0,90,-99.99,,,-99.99,,2013-04-29 12:31:00,
2013-04-29 05:41:00,51.0,48.0,29.97,West,270,14.0,27.0,90,-99.99,,,-99.99,,2013-04-29 12:41:00,
2013-04-29 05:52:00,50.0,49.0,29.97,West,278,13.0,29.0,95,-99.99,,,-99.99,,2013-04-29 12:52:00,
2013-04-29 06:01:00,50.0,49.0,29.97,West,274,13.0,24.0,94,-99.99,,,-99.99,,2013-04-29 13:01:00,
2013-04-29 06:11:00,50.0,48.0,29.97,WNW,282,9.0,21.0,92,-99.99,,,-99.99,,2013-04-29 13:11:00,
2013-04-29 06:21:00,50.0,47.0,29.98,West,277,10.0,18.0,91,-99.99,,,-99.99,,2013-04-29 13:21:00,
2013-04-29 06:31:00,49.0,46.0,29.98,West,279,11.0,22.0,90,-99.99,,,-99.99,,2013-04-29 13:31:00,
2013-04-29 06:42:00,49.0,46.0,29.98,WNW,283,13.0,29.0,89,-99.99,,,-99.99,,2013-04-29 13:42:00,
2013-04-29 06:52:00,49.0,46.0,29.99,West,281,13.0,25.0,89,-99.99,,,-99.99,,2013-04-29 13:52:00,
2013-04-29 07:01:00,49.0,46.0,29.99,West,281,13.0,25.0,89,-99.99,,,-99.99,,2013-04-29 14:01:00,
2013-04-29 07:11:00,48.0,46.0,30.00,WNW,286,11.0,24.0,91,-99.99,,,-99.99,,2013-04-29 14:11:00,
2013-04-29 07:21:00,48.0,45.0,30.01,West,279,12.0,30.0,89,-99.99,,,-99.99,,2013-04-29 14:21:00,
2013-04-29 07:32:00,47.0,44.0,30.02,WNW,287,11.0,26.0,89,-99.99,,,-99.99,,2013-04-29 14:32:00,
2013-04-29 07:42:00,48.0,42.0,30.03,WNW,291,13.0,30.0,81,-99.99,,,-99.99,,2013-04-29 14:42:00,
2013-04-29 07:51:00,48.0,42.0,30.03,WNW,293,12.0,24.0,79,-99.99,,,-99.99,,2013-04-29 14:51:00,
2013-04-29 08:01:00,48.0,42.0,30.03,WNW,293,12.0,24.0,79,-99.99,,,-99.99,,2013-04-29 15:01:00,
2013-04-29 08:12:00,48.0,42.0,30.05,West,259,9.0,18.0,80,-99.99,,,-99.99,,2013-04-29 15:12:00,
2013-04-29 08:21:00,48.0,42.0,30.05,West,267,9.0,20.0,78,-99.99,,,-99.99,,2013-04-29 15:21:00,
2013-04-29 08:33:00,48.0,40.0,30.06,West,272,12.0,30.0,73,-99.99,,,-99.99,,2013-04-29 15:33:00,
2013-04-29 08:42:00,48.0,40.0,30.06,West,274,12.0,23.0,73,-99.99,,,-99.99,,2013-04-29 15:42:00,
2013-04-29 08:52:00,48.0,40.0,30.06,WNW,298,11.0,20.0,73,-99.99,,,-99.99,,2013-04-29 15:52:00,
2013-04-29 09:02:00,48.0,40.0,30.07,WNW,283,10.0,21.0,73,-99.99,,,-99.99,,2013-04-29 16:02:00,
2013-04-29 09:12:00,47.0,39.0,30.07,WNW,288,14.0,22.0,73,-99.99,,,-99.99,,2013-04-29 16:12:00,
2013-04-29 09:23:00,48.0,39.0,30.08,WNW,292,10.0,19.0,71,-99.99,,,-99.99,,2013-04-29 16:23:00,
2013-04-29 09:32:00,48.0,38.0,30.08,WNW,286,13.0,23.0,69,-99.99,,,-99.99,,2013-04-29 16:32:00,
2013-04-29 09:42:00,48.0,38.0,30.08,WNW,288,12.0,24.0,69,-99.99,,,-99.99,,2013-04-29 16:42:00,
2013-04-29 09:52:00,48.0,38.0,30.08,West,266,9.0,19.0,69,-99.99,,,-99.99,,2013-04-29 16:52:00,
2013-04-29 10:02:00,48.0,38.0,30.08,West,266,9.0,19.0,69,-99.99,,,-99.99,,2013-04-29 17:02:00,
2013-04-29 10:12:00,48.0,38.0,30.09,WSW,254,8.0,19.0,67,-99.99,,,-99.99,,2013-04-29 17:12:00,
2013-04-29 10:22:00,48.0,38.0,30.09,West,271,9.0,19.0,67,-99.99,,,-99.99,,2013-04-29 17:22:00,
2013-04-29 10:32:00,48.0,37.0,30.09,West,266,7.0,17.0,65,-99.99,,,-99.99,,2013-04-29 17:32:00,
2013-04-29 10:42:00,48.0,37.0,30.10,West,262,9.0,17.0,63,-99.99,,,-99.99,,2013-04-29 17:42:00,
2013-04-29 10:52:00,48.0,36.0,30.10,West,277,11.0,24.0,61,-99.99,,,-99.99,,2013-04-29 17:52:00,
2013-04-29 11:01:00,48.0,36.0,30.10,West,277,11.0,24.0,61,-99.99,,,-99.99,,2013-04-29 18:01:00,
2013-04-29 11:13:00,49.0,36.0,30.10,West,264,6.0,15.0,59,-99.99,,,-99.99,,2013-04-29 18:13:00,
2013-04-29 11:22:00,50.0,35.0,30.11,West,272,11.0,20.0,56,-99.99,,,-99.99,,2013-04-29 18:22:00,
2013-04-29 11:31:00,50.0,34.0,30.10,WNW,287,14.0,23.0,54,-99.99,,,-99.99,,2013-04-29 18:31:00,
2013-04-29 11:40:00,54.0,37.0,30.10,West,281,10.0,26.0,53,-99.99,,,-99.99,,2013-04-29 18:40:00,
2013-04-29 11:41:00,50.0,34.0,30.10,West,274,13.0,29.0,54,-99.99,,,-99.99,,2013-04-29 18:41:00,
2013-04-29 11:51:00,50.0,36.0,30.11,West,276,16.0,29.0,56,-99.99,,,-99.99,,2013-04-29 18:51:00,
2013-04-29 12:01:00,50.0,36.0,30.11,West,276,16.0,29.0,56,-99.99,,,-99.99,,2013-04-29 19:01:00,
2013-04-29 12:11:00,52.0,38.0,30.10,West,279,10.0,17.0,58,-99.99,,,-99.99,,2013-04-29 19:11:00,
2013-04-29 12:21:00,54.0,37.0,30.10,West,281,10.0,26.0,53,-99.99,,,-99.99,,2013-04-29 19:21:00,
2013-04-29 12:31:00,54.0,37.0,30.10,West,281,10.0,26.0,53,-99.99,,,-99.99,,2013-04-29 19:31:00,
2013-04-29 12:52:00,54.0,36.0,30.11,WNW,292,15.0,29.0,50,-99.99,,,-99.99,,2013-04-29 19:52:00,
2013-04-29 13:02:00,54.0,36.0,30.11,WNW,292,15.0,29.0,50,-99.99,,,-99.99,,2013-04-29 20:02:00,
2013-04-29 13:11:00,52.0,39.0,30.12,West,279,17.0,29.0,61,-99.99,,,-99.99,,2013-04-29 20:11:00,
2013-04-29 13:21:00,52.0,39.0,30.12,West,262,12.0,26.0,59,-99.99,,,-99.99,,2013-04-29 20:21:00,
2013-04-29 13:32:00,53.0,38.0,30.12,West,266,13.0,21.0,55,-99.99,,,-99.99,,2013-04-29 20:32:00,
2013-04-29 13:42:00,54.0,37.0,30.12,West,275,12.0,21.0,53,-99.99,,,-99.99,,2013-04-29 20:42:00,
2013-04-29 13:52:00,54.0,35.0,30.12,West,259,14.0,28.0,48,-99.99,,,-99.99,,2013-04-29 20:52:00,
2013-04-29 14:01:00,55.0,34.0,30.11,West,266,14.0,27.0,44,-99.99,,,-99.99,,2013-04-29 21:01:00,
2013-04-29 14:11:00,55.0,32.0,30.11,West,271,16.0,28.0,40,-99.99,,,-99.99,,2013-04-29 21:11:00,
2013-04-29 14:21:00,55.0,33.0,30.11,West,267,14.0,26.0,42,-99.99,,,-99.99,,2013-04-29 21:21:00,
2013-04-29 14:33:00,55.0,34.0,30.11,West,266,14.0,24.0,44,-99.99,,,-99.99,,2013-04-29 21:33:00,
2013-04-29 14:42:00,55.0,34.0,30.11,West,266,14.0,24.0,44,-99.99,,,-99.99,,2013-04-29 21:42:00,
2013-04-29 14:53:00,56.0,31.0,30.10,West,265,14.0,24.0,38,-99.99,,,-99.99,,2013-04-29 21:53:00,
2013-04-29 15:02:00,57.0,31.0,30.10,West,270,15.0,25.0,37,-99.99,,,-99.99,,2013-04-29 22:02:00,
2013-04-29 15:13:00,57.0,31.0,30.10,West,260,16.0,29.0,37,-99.99,,,-99.99,,2013-04-29 22:13:00,
2013-04-29 15:23:00,57.0,31.0,30.10,WSW,253,14.0,31.0,36,-99.99,,,-99.99,,2013-04-29 22:23:00,
2013-04-29 15:32:00,56.0,29.0,30.10,West,263,14.0,25.0,35,-99.99,,,-99.99,,2013-04-29 22:32:00,
2013-04-29 15:42:00,57.0,30.0,30.10,West,267,15.0,27.0,35,-99.99,,,-99.99,,2013-04-29 22:42:00,
2013-04-29 15:52:00,57.0,30.0,30.09,West,271,16.0,28.0,34,-99.99,,,-99.99,,2013-04-29 22:52:00,
2013-04-29 16:02:00,57.0,30.0,30.09,West,269,11.0,19.0,34,-99.99,,,-99.99,,2013-04-29 23:02:00,
2013-04-29 16:11:00,58.0,30.0,30.09,WSW,258,13.0,22.0,35,-99.99,,,-99.99,,2013-04-29 23:11:00,
2013-04-29 16:22:00,58.0,30.0,30.10,WSW,255,11.0,20.0,34,-99.99,,,-99.99,,2013-04-29 23:22:00,
2013-04-29 16:32:00,58.0,30.0,30.09,West,267,15.0,26.0,35,-99.99,,,-99.99,,2013-04-29 23:32:00,
2013-04-29 16:42:00,58.0,29.0,30.09,West,264,17.0,27.0,34,-99.99,,,-99.99,,2013-04-29 23:42:00,
2013-04-29 16:50:00,57.0,27.0,30.09,WSW,258,11.0,22.0,31,-99.99,,,-99.99,,2013-04-29 23:50:00,
2013-04-29 16:52:00,58.0,27.0,30.09,West,266,16.0,29.0,30,-99.99,,,-99.99,,2013-04-29 23:52:00,
2013-04-29 17:01:00,58.0,28.0,30.09,West,263,11.0,22.0,31,-99.99,,,-99.99,,2013-04-30 00:01:00,
2013-04-29 17:11:00,58.0,27.0,30.09,West,261,12.0,18.0,31,-99.99,,,-99.99,,2013-04-30 00:11:00,
2013-04-29 17:21:00,58.0,28.0,30.09,WSW,257,12.0,27.0,31,-99.99,,,-99.99,,2013-04-30 00:21:00,
2013-04-29 17:30:00,56.0,27.0,30.10,West,272,11.0,19.0,31,-99.99,,,-99.99,,2013-04-30 00:30:00,
2013-04-29 17:32:00,57.0,27.0,30.09,WSW,258,11.0,22.0,31,-99.99,,,-99.99,,2013-04-30 00:32:00,
2013-04-29 17:41:00,57.0,27.0,30.09,WSW,258,11.0,22.0,31,-99.99,,,-99.99,,2013-04-30 00:41:00,
2013-04-29 18:01:00,57.0,28.0,30.09,West,276,10.0,21.0,32,-99.99,,,-99.99,,2013-04-30 01:01:00,
2013-04-29 18:10:00,56.0,25.0,30.10,West,261,11.0,21.0,30,-99.99,,,-99.99,,2013-04-30 01:10:00,
2013-04-29 18:11:00,56.0,27.0,30.10,West,272,11.0,19.0,31,-99.99,,,-99.99,,2013-04-30 01:11:00,
2013-04-29 18:21:00,56.0,27.0,30.10,West,272,11.0,19.0,31,-99.99,,,-99.99,,2013-04-30 01:21:00,
2013-04-29 18:50:00,54.0,27.0,30.11,West,275,9.0,16.0,35,-99.99,,,-99.99,,2013-04-30 01:50:00,
2013-04-29 18:52:00,56.0,25.0,30.10,West,261,11.0,21.0,30,-99.99,,,-99.99,,2013-04-30 01:52:00,
2013-04-29 19:01:00,56.0,25.0,30.10,West,261,11.0,21.0,30,-99.99,,,-99.99,,2013-04-30 02:01:00,
2013-04-29 19:21:00,54.0,25.0,30.10,West,275,11.0,19.0,32,-99.99,,,-99.99,,2013-04-30 02:21:00,
2013-04-29 19:31:00,54.0,27.0,30.11,West,275,9.0,16.0,35,-99.99,,,-99.99,,2013-04-30 02:31:00,
2013-04-29 19:40:00,51.0,25.0,30.11,West,273,11.0,19.0,36,-99.99,,,-99.99,,2013-04-30 02:40:00,
2013-04-29 19:41:00,54.0,27.0,30.11,West,275,9.0,16.0,35,-99.99,,,-99.99,,2013-04-30 02:41:00,
2013-04-29 20:01:00,52.0,26.0,30.10,West,277,10.0,22.0,35,-99.99,,,-99.99,,2013-04-30 03:01:00,
2013-04-29 20:11:00,52.0,26.0,30.10,West,277,10.0,22.0,35,-99.99,,,-99.99,,2013-04-30 03:11:00,
2013-04-29 20:21:00,51.0,25.0,30.11,West,273,11.0,19.0,36,-99.99,,,-99.99,,2013-04-30 03:21:00,
2013-04-29 20:33:00,51.0,25.0,30.11,West,273,11.0,19.0,36,-99.99,,,-99.99,,2013-04-30 03:33:00,
2013-04-29 22:40:00,45.0,29.0,30.15,WSW,247,5.0,9.0,53,-99.99,,,-99.99,,2013-04-30 05:40:00,
2013-04-29 23:01:00,45.0,29.0,30.15,WSW,245,4.0,9.0,53,-99.99,,,-99.99,,2013-04-30 06:01:00,
2013-04-29 23:11:00,45.0,29.0,30.15,WSW,245,4.0,9.0,53,-99.99,,,-99.99,,2013-04-30 06:11:00,
2013-04-29 23:21:00,45.0,29.0,30.15,WSW,247,5.0,9.0,53,-99.99,,,-99.99,,2013-04-30 06:21:00,
2013-04-29 23:31:00,45.0,29.0,30.15,WSW,247,5.0,9.0,53,-99.99,,,-99.99,,2013-04-30 06:31:00,
2013-04-29 23:52:00,44.0,30.0,30.15,WSW,254,5.0,13.0,56,-99.99,,,-99.99,,2013-04-30 06:52:00,